sensor_id;sensor_type;location;lat;lon;timestamp;temperature;humidity
52643;DHT22;38531;53.296;6.614;2022-08-19T00:02:23;14.70;99.90
52643;DHT22;38531;53.296;6.614;2022-08-19T00:04:52;14.70;99.90
52643;DHT22;38531;53.296;6.614;2022-08-19T00:07:19;14.60;99.90
52643;DHT22;38531;53.296;6.614;2022-08-19T00:09:47;14.60;99.90
52643;DHT22;38531;53.296;6.614;2022-08-19T00:12:15;14.60;99.90
52643;DHT22;38531;53.296;6.614;2022-08-19T00:14:43;14.70;99.90
52643;DHT22;38531;53.296;6.614;2022-08-19T00:17:09;15.00;99.90
52643;DHT22;38531;53.296;6.614;2022-08-19T00:19:41;14.50;99.90
52643;DHT22;38531;53.296;6.614;2022-08-19T00:22:07;14.50;99.90
52643;DHT22;38531;53.296;6.614;2022-08-19T00:24:34;14.80;99.90
52643;DHT22;38531;53.296;6.614;2022-08-19T00:27:13;14.60;99.90
52643;DHT22;38531;53.296;6.614;2022-08-19T00:29:52;14.50;99.90
52643;DHT22;38531;53.296;6.614;2022-08-19T00:32:25;14.50;99.90
52643;DHT22;38531;53.296;6.614;2022-08-19T00:35:13;14.90;99.90
52643;DHT22;38531;53.296;6.614;2022-08-19T00:38:17;14.40;99.90
52643;DHT22;38531;53.296;6.614;2022-08-19T00:40:51;14.40;99.90
52643;DHT22;38531;53.296;6.614;2022-08-19T00:43:26;14.50;99.90
52643;DHT22;38531;53.296;6.614;2022-08-19T00:45:55;14.50;99.90
52643;DHT22;38531;53.296;6.614;2022-08-19T00:56:10;14.20;99.90
52643;DHT22;38531;53.296;6.614;2022-08-19T00:58:47;14.40;99.90
52643;DHT22;38531;53.296;6.614;2022-08-19T01:01:15;14.20;99.90
52643;DHT22;38531;53.296;6.614;2022-08-19T01:03:49;14.30;99.90
52643;DHT22;38531;53.296;6.614;2022-08-19T01:06:18;14.30;99.90
52643;DHT22;38531;53.296;6.614;2022-08-19T01:08:47;14.30;99.90
52643;DHT22;38531;53.296;6.614;2022-08-19T01:11:30;14.30;99.90
52643;DHT22;38531;53.296;6.614;2022-08-19T01:14:14;14.30;99.90
52643;DHT22;38531;53.296;6.614;2022-08-19T01:17:02;14.20;99.90
52643;DHT22;38531;53.296;6.614;2022-08-19T01:23:31;14.20;99.90
52643;DHT22;38531;53.296;6.614;2022-08-19T01:26:28;14.00;99.90
52643;DHT22;38531;53.296;6.614;2022-08-19T01:29:28;14.10;99.90
52643;DHT22;38531;53.296;6.614;2022-08-19T01:32:28;14.30;99.90
52643;DHT22;38531;53.296;6.614;2022-08-19T01:35:08;14.10;99.90
52643;DHT22;38531;53.296;6.614;2022-08-19T01:37:57;13.80;99.90
52643;DHT22;38531;53.296;6.614;2022-08-19T01:40:40;14.10;99.90
52643;DHT22;38531;53.296;6.614;2022-08-19T01:43:25;14.10;99.90
52643;DHT22;38531;53.296;6.614;2022-08-19T01:45:56;14.20;99.90
52643;DHT22;38531;53.296;6.614;2022-08-19T01:55:46;13.80;99.90
52643;DHT22;38531;53.296;6.614;2022-08-19T01:58:23;13.90;99.90
52643;DHT22;38531;53.296;6.614;2022-08-19T02:00:52;13.70;99.90
52643;DHT22;38531;53.296;6.614;2022-08-19T02:10:12;13.80;99.90
52643;DHT22;38531;53.296;6.614;2022-08-19T02:12:41;13.80;99.90
52643;DHT22;38531;53.296;6.614;2022-08-19T02:15:20;13.60;99.90
52643;DHT22;38531;53.296;6.614;2022-08-19T02:17:49;13.80;99.90
52643;DHT22;38531;53.296;6.614;2022-08-19T02:20:15;13.80;99.90
52643;DHT22;38531;53.296;6.614;2022-08-19T02:22:42;13.90;99.90
52643;DHT22;38531;53.296;6.614;2022-08-19T02:25:10;13.60;99.90
52643;DHT22;38531;53.296;6.614;2022-08-19T02:27:39;14.00;99.90
52643;DHT22;38531;53.296;6.614;2022-08-19T02:30:07;13.50;99.90
52643;DHT22;38531;53.296;6.614;2022-08-19T02:32:36;13.50;99.90
52643;DHT22;38531;53.296;6.614;2022-08-19T02:35:05;13.50;99.90
52643;DHT22;38531;53.296;6.614;2022-08-19T02:37:31;13.50;99.90
52643;DHT22;38531;53.296;6.614;2022-08-19T02:40:15;13.50;99.90
52643;DHT22;38531;53.296;6.614;2022-08-19T02:42:44;13.80;99.90
52643;DHT22;38531;53.296;6.614;2022-08-19T02:45:11;13.60;99.90
52643;DHT22;38531;53.296;6.614;2022-08-19T02:47:37;13.60;99.90
52643;DHT22;38531;53.296;6.614;2022-08-19T02:50:04;13.60;99.90
52643;DHT22;38531;53.296;6.614;2022-08-19T02:52:32;13.50;99.90
52643;DHT22;38531;53.296;6.614;2022-08-19T02:54:57;13.50;99.90
52643;DHT22;38531;53.296;6.614;2022-08-19T02:57:24;13.50;99.90
52643;DHT22;38531;53.296;6.614;2022-08-19T02:59:50;13.60;99.90
52643;DHT22;38531;53.296;6.614;2022-08-19T03:02:15;14.00;99.90
52643;DHT22;38531;53.296;6.614;2022-08-19T03:04:41;13.50;99.90
52643;DHT22;38531;53.296;6.614;2022-08-19T03:07:08;13.50;99.90
52643;DHT22;38531;53.296;6.614;2022-08-19T03:09:37;13.50;99.90
52643;DHT22;38531;53.296;6.614;2022-08-19T03:12:06;13.50;99.90
52643;DHT22;38531;53.296;6.614;2022-08-19T03:14:33;13.50;99.90
52643;DHT22;38531;53.296;6.614;2022-08-19T03:16:59;13.50;99.90
52643;DHT22;38531;53.296;6.614;2022-08-19T03:19:26;13.50;99.90
52643;DHT22;38531;53.296;6.614;2022-08-19T03:21:53;13.60;99.90
52643;DHT22;38531;53.296;6.614;2022-08-19T03:24:21;13.50;99.90
52643;DHT22;38531;53.296;6.614;2022-08-19T03:26:52;13.50;99.90
52643;DHT22;38531;53.296;6.614;2022-08-19T03:29:20;13.70;99.90
52643;DHT22;38531;53.296;6.614;2022-08-19T03:31:54;13.50;99.90
52643;DHT22;38531;53.296;6.614;2022-08-19T03:34:26;13.20;99.90
52643;DHT22;38531;53.296;6.614;2022-08-19T03:36:53;13.50;99.90
52643;DHT22;38531;53.296;6.614;2022-08-19T03:39:25;13.50;99.90
52643;DHT22;38531;53.296;6.614;2022-08-19T03:41:58;13.60;99.90
52643;DHT22;38531;53.296;6.614;2022-08-19T03:44:37;13.50;99.90
52643;DHT22;38531;53.296;6.614;2022-08-19T03:47:06;13.70;99.90
52643;DHT22;38531;53.296;6.614;2022-08-19T03:49:33;13.50;99.90
52643;DHT22;38531;53.296;6.614;2022-08-19T03:52:03;13.50;99.90
52643;DHT22;38531;53.296;6.614;2022-08-19T03:54:32;13.50;99.90
52643;DHT22;38531;53.296;6.614;2022-08-19T03:56:58;13.50;99.90
52643;DHT22;38531;53.296;6.614;2022-08-19T03:59:36;13.10;99.90
52643;DHT22;38531;53.296;6.614;2022-08-19T04:02:11;13.40;99.90
52643;DHT22;38531;53.296;6.614;2022-08-19T04:04:42;13.50;99.90
52643;DHT22;38531;53.296;6.614;2022-08-19T04:07:12;13.50;99.90
52643;DHT22;38531;53.296;6.614;2022-08-19T04:09:43;13.50;99.90
52643;DHT22;38531;53.296;6.614;2022-08-19T04:12:11;13.50;99.90
52643;DHT22;38531;53.296;6.614;2022-08-19T04:14:39;13.50;99.90
52643;DHT22;38531;53.296;6.614;2022-08-19T04:17:26;13.50;99.90
52643;DHT22;38531;53.296;6.614;2022-08-19T04:19:52;13.60;99.90
52643;DHT22;38531;53.296;6.614;2022-08-19T04:22:23;13.80;99.90
52643;DHT22;38531;53.296;6.614;2022-08-19T04:24:55;13.50;99.90
52643;DHT22;38531;53.296;6.614;2022-08-19T04:27:24;13.40;99.90
52643;DHT22;38531;53.296;6.614;2022-08-19T04:29:49;13.40;99.90
52643;DHT22;38531;53.296;6.614;2022-08-19T04:32:15;13.40;99.90
52643;DHT22;38531;53.296;6.614;2022-08-19T04:34:41;13.40;99.90
52643;DHT22;38531;53.296;6.614;2022-08-19T04:37:08;13.90;99.90
52643;DHT22;38531;53.296;6.614;2022-08-19T04:39:38;13.60;99.90
52643;DHT22;38531;53.296;6.614;2022-08-19T04:42:23;13.40;99.90
52643;DHT22;38531;53.296;6.614;2022-08-19T04:45:14;13.20;99.90
52643;DHT22;38531;53.296;6.614;2022-08-19T04:47:43;13.40;99.90
52643;DHT22;38531;53.296;6.614;2022-08-19T04:50:13;13.30;99.90
52643;DHT22;38531;53.296;6.614;2022-08-19T04:52:43;13.30;99.90
52643;DHT22;38531;53.296;6.614;2022-08-19T04:55:14;13.40;99.90
52643;DHT22;38531;53.296;6.614;2022-08-19T04:57:43;13.30;99.90
52643;DHT22;38531;53.296;6.614;2022-08-19T05:00:16;13.30;99.90
52643;DHT22;38531;53.296;6.614;2022-08-19T05:03:01;13.30;99.90
52643;DHT22;38531;53.296;6.614;2022-08-19T05:09:20;13.90;99.90
52643;DHT22;38531;53.296;6.614;2022-08-19T05:11:48;13.40;99.90
52643;DHT22;38531;53.296;6.614;2022-08-19T05:14:15;13.40;99.90
52643;DHT22;38531;53.296;6.614;2022-08-19T05:16:40;14.00;99.90
52643;DHT22;38531;53.296;6.614;2022-08-19T05:19:09;13.50;99.90
52643;DHT22;38531;53.296;6.614;2022-08-19T05:21:54;13.50;99.90
52643;DHT22;38531;53.296;6.614;2022-08-19T05:25:07;13.60;99.90
52643;DHT22;38531;53.296;6.614;2022-08-19T05:48:24;14.40;99.90
52643;DHT22;38531;53.296;6.614;2022-08-19T05:59:29;14.90;99.90
52643;DHT22;38531;53.296;6.614;2022-08-19T06:09:47;15.90;99.90
52643;DHT22;38531;53.296;6.614;2022-08-19T06:12:40;15.80;99.90
52643;DHT22;38531;53.296;6.614;2022-08-19T06:15:12;15.90;99.90
52643;DHT22;38531;53.296;6.614;2022-08-19T06:17:51;16.20;99.90
52643;DHT22;38531;53.296;6.614;2022-08-19T06:20:17;16.30;99.90
52643;DHT22;38531;53.296;6.614;2022-08-19T06:22:46;16.50;99.90
52643;DHT22;38531;53.296;6.614;2022-08-19T06:25:15;16.60;99.90
52643;DHT22;38531;53.296;6.614;2022-08-19T06:27:46;16.80;99.90
52643;DHT22;38531;53.296;6.614;2022-08-19T06:32:40;17.10;99.90
52643;DHT22;38531;53.296;6.614;2022-08-19T10:01:56;27.90;99.90
52643;DHT22;38531;53.296;6.614;2022-08-19T10:04:35;28.20;99.90
52643;DHT22;38531;53.296;6.614;2022-08-19T10:07:43;28.30;99.90
52643;DHT22;38531;53.296;6.614;2022-08-19T10:10:27;28.40;99.90
52643;DHT22;38531;53.296;6.614;2022-08-19T10:12:58;28.40;99.90
52643;DHT22;38531;53.296;6.614;2022-08-19T10:15:26;28.50;99.90
52643;DHT22;38531;53.296;6.614;2022-08-19T10:18:04;28.60;99.90
52643;DHT22;38531;53.296;6.614;2022-08-19T10:20:30;28.70;99.60
52643;DHT22;38531;53.296;6.614;2022-08-19T10:22:58;28.80;99.90
52643;DHT22;38531;53.296;6.614;2022-08-19T10:25:27;28.90;99.90
52643;DHT22;38531;53.296;6.614;2022-08-19T10:27:53;28.70;99.10
52643;DHT22;38531;53.296;6.614;2022-08-19T10:30:20;28.60;99.90
52643;DHT22;38531;53.296;6.614;2022-08-19T12:14:22;29.80;95.30
52643;DHT22;38531;53.296;6.614;2022-08-19T12:16:48;29.90;95.00
52643;DHT22;38531;53.296;6.614;2022-08-19T12:19:15;30.00;93.90
52643;DHT22;38531;53.296;6.614;2022-08-19T12:21:41;29.90;94.00
52643;DHT22;38531;53.296;6.614;2022-08-19T12:24:06;29.90;95.10
52643;DHT22;38531;53.296;6.614;2022-08-19T12:26:33;30.00;95.40
52643;DHT22;38531;53.296;6.614;2022-08-19T12:28:59;29.90;94.90
52643;DHT22;38531;53.296;6.614;2022-08-19T12:31:26;29.80;93.50
52643;DHT22;38531;53.296;6.614;2022-08-19T12:33:53;29.70;94.20
52643;DHT22;38531;53.296;6.614;2022-08-19T12:36:19;29.80;93.60
52643;DHT22;38531;53.296;6.614;2022-08-19T12:38:45;29.70;94.70
52643;DHT22;38531;53.296;6.614;2022-08-19T12:41:15;29.50;94.30
52643;DHT22;38531;53.296;6.614;2022-08-19T12:43:43;29.50;95.20
52643;DHT22;38531;53.296;6.614;2022-08-19T12:46:09;29.50;96.30
52643;DHT22;38531;53.296;6.614;2022-08-19T12:48:36;29.40;94.70
52643;DHT22;38531;53.296;6.614;2022-08-19T12:51:09;29.40;96.20
52643;DHT22;38531;53.296;6.614;2022-08-19T12:53:36;29.20;94.60
52643;DHT22;38531;53.296;6.614;2022-08-19T12:56:03;29.20;96.70
52643;DHT22;38531;53.296;6.614;2022-08-19T12:58:29;29.00;96.20
52643;DHT22;38531;53.296;6.614;2022-08-19T13:01:12;28.90;96.70
52643;DHT22;38531;53.296;6.614;2022-08-19T13:03:38;28.80;96.80
52643;DHT22;38531;53.296;6.614;2022-08-19T13:06:04;28.70;95.90
52643;DHT22;38531;53.296;6.614;2022-08-19T13:08:30;28.60;96.20
52643;DHT22;38531;53.296;6.614;2022-08-19T13:11:07;28.40;96.30
52643;DHT22;38531;53.296;6.614;2022-08-19T13:13:33;28.40;96.90
52643;DHT22;38531;53.296;6.614;2022-08-19T13:16:14;28.40;96.90
52643;DHT22;38531;53.296;6.614;2022-08-19T13:18:57;28.40;96.40
52643;DHT22;38531;53.296;6.614;2022-08-19T13:21:25;28.10;97.80
52643;DHT22;38531;53.296;6.614;2022-08-19T13:23:54;27.90;99.20
52643;DHT22;38531;53.296;6.614;2022-08-19T13:26:23;27.60;99.70
52643;DHT22;38531;53.296;6.614;2022-08-19T13:28:50;27.30;99.90
52643;DHT22;38531;53.296;6.614;2022-08-19T13:31:35;27.00;99.90
52643;DHT22;38531;53.296;6.614;2022-08-19T13:34:30;26.60;99.90
52643;DHT22;38531;53.296;6.614;2022-08-19T13:36:56;26.30;99.90
52643;DHT22;38531;53.296;6.614;2022-08-19T13:39:22;25.80;99.90
52643;DHT22;38531;53.296;6.614;2022-08-19T13:41:48;25.60;99.90
52643;DHT22;38531;53.296;6.614;2022-08-19T13:44:16;25.50;99.90
52643;DHT22;38531;53.296;6.614;2022-08-19T13:46:46;25.20;99.90
52643;DHT22;38531;53.296;6.614;2022-08-19T13:49:14;25.00;99.90
52643;DHT22;38531;53.296;6.614;2022-08-19T13:51:41;25.00;99.90
52643;DHT22;38531;53.296;6.614;2022-08-19T13:54:09;25.10;99.90
52643;DHT22;38531;53.296;6.614;2022-08-19T13:56:40;25.00;99.90
52643;DHT22;38531;53.296;6.614;2022-08-19T14:02:37;25.10;99.90
52643;DHT22;38531;53.296;6.614;2022-08-19T14:09:24;25.20;99.90
52643;DHT22;38531;53.296;6.614;2022-08-19T14:11:57;25.20;99.90
52643;DHT22;38531;53.296;6.614;2022-08-19T14:14:26;25.20;99.90
52643;DHT22;38531;53.296;6.614;2022-08-19T14:20:07;25.20;99.90
52643;DHT22;38531;53.296;6.614;2022-08-19T14:22:40;25.30;99.90
52643;DHT22;38531;53.296;6.614;2022-08-19T14:25:09;25.50;99.90
52643;DHT22;38531;53.296;6.614;2022-08-19T14:27:40;25.90;99.90
52643;DHT22;38531;53.296;6.614;2022-08-19T14:30:11;26.30;99.90
52643;DHT22;38531;53.296;6.614;2022-08-19T14:32:37;26.50;99.90
52643;DHT22;38531;53.296;6.614;2022-08-19T14:35:05;26.30;99.90
52643;DHT22;38531;53.296;6.614;2022-08-19T14:37:33;26.40;99.90
52643;DHT22;38531;53.296;6.614;2022-08-19T14:39:59;26.00;99.90
52643;DHT22;38531;53.296;6.614;2022-08-19T14:42:25;26.00;99.90
52643;DHT22;38531;53.296;6.614;2022-08-19T14:44:57;26.10;99.90
52643;DHT22;38531;53.296;6.614;2022-08-19T14:47:27;26.10;99.90
52643;DHT22;38531;53.296;6.614;2022-08-19T15:00:29;27.20;99.90
52643;DHT22;38531;53.296;6.614;2022-08-19T15:02:58;27.00;99.90
52643;DHT22;38531;53.296;6.614;2022-08-19T15:06:05;27.10;99.90
52643;DHT22;38531;53.296;6.614;2022-08-19T15:48:38;25.50;99.90
52643;DHT22;38531;53.296;6.614;2022-08-19T15:55:53;25.70;99.90
52643;DHT22;38531;53.296;6.614;2022-08-19T16:12:02;25.20;99.90
52643;DHT22;38531;53.296;6.614;2022-08-19T16:17:56;25.10;99.90
52643;DHT22;38531;53.296;6.614;2022-08-19T16:28:35;24.60;99.90
52643;DHT22;38531;53.296;6.614;2022-08-19T16:35:18;24.40;99.90
52643;DHT22;38531;53.296;6.614;2022-08-19T16:37:44;24.30;99.90
52643;DHT22;38531;53.296;6.614;2022-08-19T16:40:33;24.20;99.90
52643;DHT22;38531;53.296;6.614;2022-08-19T16:43:22;24.10;99.90
52643;DHT22;38531;53.296;6.614;2022-08-19T16:46:54;24.10;99.90
52643;DHT22;38531;53.296;6.614;2022-08-19T16:49:54;24.00;99.90
52643;DHT22;38531;53.296;6.614;2022-08-19T16:52:20;23.90;99.90
52643;DHT22;38531;53.296;6.614;2022-08-19T17:19:39;23.40;99.90
52643;DHT22;38531;53.296;6.614;2022-08-19T17:52:33;22.90;99.90
52643;DHT22;38531;53.296;6.614;2022-08-19T18:04:04;22.80;99.90
52643;DHT22;38531;53.296;6.614;2022-08-19T18:06:32;22.80;99.90
52643;DHT22;38531;53.296;6.614;2022-08-19T18:09:01;22.70;99.90
52643;DHT22;38531;53.296;6.614;2022-08-19T18:11:26;22.70;99.90
52643;DHT22;38531;53.296;6.614;2022-08-19T18:13:52;22.60;99.90
52643;DHT22;38531;53.296;6.614;2022-08-19T18:16:18;22.60;99.90
52643;DHT22;38531;53.296;6.614;2022-08-19T18:18:45;22.60;99.90
52643;DHT22;38531;53.296;6.614;2022-08-19T18:21:10;22.60;99.90
52643;DHT22;38531;53.296;6.614;2022-08-19T18:23:36;22.60;99.90
52643;DHT22;38531;53.296;6.614;2022-08-19T18:26:03;22.60;99.90
52643;DHT22;38531;53.296;6.614;2022-08-19T18:28:29;22.60;99.90
52643;DHT22;38531;53.296;6.614;2022-08-19T18:30:55;22.50;99.90
52643;DHT22;38531;53.296;6.614;2022-08-19T18:33:21;22.50;99.90
52643;DHT22;38531;53.296;6.614;2022-08-19T18:35:48;22.50;99.90
52643;DHT22;38531;53.296;6.614;2022-08-19T18:38:18;22.40;99.90
52643;DHT22;38531;53.296;6.614;2022-08-19T18:41:03;22.50;99.90
52643;DHT22;38531;53.296;6.614;2022-08-19T18:43:47;22.40;99.90
52643;DHT22;38531;53.296;6.614;2022-08-19T18:46:31;22.40;99.90
52643;DHT22;38531;53.296;6.614;2022-08-19T18:49:26;22.30;99.90
52643;DHT22;38531;53.296;6.614;2022-08-19T18:51:53;22.20;99.90
52643;DHT22;38531;53.296;6.614;2022-08-19T18:54:20;22.20;99.90
52643;DHT22;38531;53.296;6.614;2022-08-19T18:56:46;22.20;99.90
52643;DHT22;38531;53.296;6.614;2022-08-19T18:59:13;22.10;99.90
52643;DHT22;38531;53.296;6.614;2022-08-19T19:01:43;22.10;99.90
52643;DHT22;38531;53.296;6.614;2022-08-19T19:04:16;22.00;99.90
52643;DHT22;38531;53.296;6.614;2022-08-19T19:06:42;22.00;99.90
52643;DHT22;38531;53.296;6.614;2022-08-19T19:09:18;22.00;99.90
52643;DHT22;38531;53.296;6.614;2022-08-19T19:11:45;22.00;99.90
52643;DHT22;38531;53.296;6.614;2022-08-19T19:14:14;21.90;99.90
52643;DHT22;38531;53.296;6.614;2022-08-19T19:16:41;21.90;99.90
52643;DHT22;38531;53.296;6.614;2022-08-19T19:19:13;21.80;99.90
52643;DHT22;38531;53.296;6.614;2022-08-19T19:21:41;21.80;99.90
52643;DHT22;38531;53.296;6.614;2022-08-19T19:24:13;21.70;99.90
52643;DHT22;38531;53.296;6.614;2022-08-19T19:26:40;21.70;99.90
52643;DHT22;38531;53.296;6.614;2022-08-19T19:29:05;21.60;99.90
52643;DHT22;38531;53.296;6.614;2022-08-19T19:31:31;21.50;99.90
52643;DHT22;38531;53.296;6.614;2022-08-19T19:33:58;21.50;99.90
52643;DHT22;38531;53.296;6.614;2022-08-19T19:36:25;21.40;99.90
52643;DHT22;38531;53.296;6.614;2022-08-19T19:38:51;21.30;99.90
52643;DHT22;38531;53.296;6.614;2022-08-19T19:41:20;21.20;99.90
52643;DHT22;38531;53.296;6.614;2022-08-19T19:43:54;21.20;99.90
52643;DHT22;38531;53.296;6.614;2022-08-19T19:46:20;21.20;99.90
52643;DHT22;38531;53.296;6.614;2022-08-19T19:48:46;21.10;99.90
52643;DHT22;38531;53.296;6.614;2022-08-19T19:51:12;21.10;99.90
52643;DHT22;38531;53.296;6.614;2022-08-19T19:53:38;21.10;99.90
52643;DHT22;38531;53.296;6.614;2022-08-19T19:56:04;21.10;99.90
52643;DHT22;38531;53.296;6.614;2022-08-19T19:58:31;21.10;99.90
52643;DHT22;38531;53.296;6.614;2022-08-19T20:00:59;21.10;99.90
52643;DHT22;38531;53.296;6.614;2022-08-19T20:03:26;21.00;99.90
52643;DHT22;38531;53.296;6.614;2022-08-19T20:05:51;20.90;99.90
52643;DHT22;38531;53.296;6.614;2022-08-19T20:08:17;20.90;99.90
52643;DHT22;38531;53.296;6.614;2022-08-19T20:11:04;21.00;99.90
52643;DHT22;38531;53.296;6.614;2022-08-19T20:13:30;20.90;99.90
52643;DHT22;38531;53.296;6.614;2022-08-19T20:15:56;20.90;99.90
52643;DHT22;38531;53.296;6.614;2022-08-19T20:18:22;20.90;99.90
52643;DHT22;38531;53.296;6.614;2022-08-19T20:20:49;20.90;99.90
52643;DHT22;38531;53.296;6.614;2022-08-19T20:23:20;20.90;99.90
52643;DHT22;38531;53.296;6.614;2022-08-19T20:25:58;20.80;99.90
52643;DHT22;38531;53.296;6.614;2022-08-19T20:28:24;20.80;99.90
52643;DHT22;38531;53.296;6.614;2022-08-19T20:30:50;20.80;99.90
52643;DHT22;38531;53.296;6.614;2022-08-19T20:33:16;20.80;99.90
52643;DHT22;38531;53.296;6.614;2022-08-19T20:35:42;20.80;99.90
52643;DHT22;38531;53.296;6.614;2022-08-19T20:38:13;20.80;99.90
52643;DHT22;38531;53.296;6.614;2022-08-19T20:40:40;20.80;99.90
52643;DHT22;38531;53.296;6.614;2022-08-19T20:43:07;20.80;99.90
52643;DHT22;38531;53.296;6.614;2022-08-19T20:45:33;20.80;99.90
52643;DHT22;38531;53.296;6.614;2022-08-19T20:48:02;20.80;99.90
52643;DHT22;38531;53.296;6.614;2022-08-19T20:50:29;20.70;99.90
52643;DHT22;38531;53.296;6.614;2022-08-19T20:52:55;20.70;99.90
52643;DHT22;38531;53.296;6.614;2022-08-19T20:55:22;20.70;99.90
52643;DHT22;38531;53.296;6.614;2022-08-19T20:57:47;20.50;99.90
52643;DHT22;38531;53.296;6.614;2022-08-19T21:00:13;20.70;99.90
52643;DHT22;38531;53.296;6.614;2022-08-19T21:02:39;20.70;99.90
52643;DHT22;38531;53.296;6.614;2022-08-19T21:05:06;20.70;99.90
52643;DHT22;38531;53.296;6.614;2022-08-19T21:07:32;20.60;99.90
52643;DHT22;38531;53.296;6.614;2022-08-19T21:09:58;20.70;99.90
52643;DHT22;38531;53.296;6.614;2022-08-19T21:12:24;20.60;99.90
52643;DHT22;38531;53.296;6.614;2022-08-19T21:14:51;20.60;99.90
52643;DHT22;38531;53.296;6.614;2022-08-19T21:17:17;20.60;99.90
52643;DHT22;38531;53.296;6.614;2022-08-19T21:19:43;20.60;99.90
52643;DHT22;38531;53.296;6.614;2022-08-19T21:22:09;20.60;99.90
52643;DHT22;38531;53.296;6.614;2022-08-19T21:24:36;20.50;99.90
52643;DHT22;38531;53.296;6.614;2022-08-19T21:27:01;20.50;99.90
52643;DHT22;38531;53.296;6.614;2022-08-19T21:29:27;20.70;99.90
52643;DHT22;38531;53.296;6.614;2022-08-19T21:31:53;20.60;99.90
52643;DHT22;38531;53.296;6.614;2022-08-19T21:34:22;20.60;99.90
52643;DHT22;38531;53.296;6.614;2022-08-19T21:36:47;20.50;99.90
52643;DHT22;38531;53.296;6.614;2022-08-19T21:39:13;20.50;99.90
52643;DHT22;38531;53.296;6.614;2022-08-19T21:41:39;20.50;99.90
52643;DHT22;38531;53.296;6.614;2022-08-19T21:44:05;20.50;99.90
52643;DHT22;38531;53.296;6.614;2022-08-19T21:46:30;20.40;99.90
52643;DHT22;38531;53.296;6.614;2022-08-19T21:49:01;20.40;99.90
52643;DHT22;38531;53.296;6.614;2022-08-19T21:51:26;20.40;99.90
52643;DHT22;38531;53.296;6.614;2022-08-19T21:53:52;20.40;99.90
52643;DHT22;38531;53.296;6.614;2022-08-19T21:56:18;20.30;99.90
52643;DHT22;38531;53.296;6.614;2022-08-19T21:58:43;20.40;99.90
52643;DHT22;38531;53.296;6.614;2022-08-19T22:01:09;20.30;99.90
52643;DHT22;38531;53.296;6.614;2022-08-19T22:03:36;20.30;99.90
52643;DHT22;38531;53.296;6.614;2022-08-19T22:06:02;20.30;99.90
52643;DHT22;38531;53.296;6.614;2022-08-19T22:08:28;20.30;99.90
52643;DHT22;38531;53.296;6.614;2022-08-19T22:10:56;20.30;99.90
52643;DHT22;38531;53.296;6.614;2022-08-19T22:13:24;20.30;99.90
52643;DHT22;38531;53.296;6.614;2022-08-19T22:15:50;20.30;99.90
52643;DHT22;38531;53.296;6.614;2022-08-19T22:18:16;20.20;99.90
52643;DHT22;38531;53.296;6.614;2022-08-19T22:20:54;20.20;99.90
52643;DHT22;38531;53.296;6.614;2022-08-19T22:23:43;20.20;99.90
52643;DHT22;38531;53.296;6.614;2022-08-19T22:26:15;20.20;99.90
52643;DHT22;38531;53.296;6.614;2022-08-19T22:28:44;20.20;99.90
52643;DHT22;38531;53.296;6.614;2022-08-19T22:31:10;20.10;99.90
52643;DHT22;38531;53.296;6.614;2022-08-19T22:33:39;20.10;99.90
52643;DHT22;38531;53.296;6.614;2022-08-19T22:36:11;20.10;99.90
52643;DHT22;38531;53.296;6.614;2022-08-19T22:39:05;20.00;99.90
52643;DHT22;38531;53.296;6.614;2022-08-19T22:41:40;20.00;99.90
52643;DHT22;38531;53.296;6.614;2022-08-19T22:44:06;20.00;99.90
52643;DHT22;38531;53.296;6.614;2022-08-19T22:46:36;20.00;99.90
52643;DHT22;38531;53.296;6.614;2022-08-19T22:49:02;20.00;99.90
52643;DHT22;38531;53.296;6.614;2022-08-19T22:51:28;19.90;99.90
52643;DHT22;38531;53.296;6.614;2022-08-19T22:54:12;19.90;99.90
52643;DHT22;38531;53.296;6.614;2022-08-19T22:56:37;19.90;99.90
52643;DHT22;38531;53.296;6.614;2022-08-19T22:59:03;19.80;99.90
52643;DHT22;38531;53.296;6.614;2022-08-19T23:01:29;19.80;99.90
52643;DHT22;38531;53.296;6.614;2022-08-19T23:03:55;19.70;99.90
52643;DHT22;38531;53.296;6.614;2022-08-19T23:06:21;19.70;99.90
52643;DHT22;38531;53.296;6.614;2022-08-19T23:08:47;19.70;99.90
52643;DHT22;38531;53.296;6.614;2022-08-19T23:11:13;19.70;99.90
52643;DHT22;38531;53.296;6.614;2022-08-19T23:13:40;19.70;99.90
52643;DHT22;38531;53.296;6.614;2022-08-19T23:16:05;19.50;99.90
52643;DHT22;38531;53.296;6.614;2022-08-19T23:18:32;19.70;99.90
52643;DHT22;38531;53.296;6.614;2022-08-19T23:20:58;19.60;99.90
52643;DHT22;38531;53.296;6.614;2022-08-19T23:23:26;19.60;99.90
52643;DHT22;38531;53.296;6.614;2022-08-19T23:25:53;19.60;99.90
52643;DHT22;38531;53.296;6.614;2022-08-19T23:28:20;19.50;99.90
52643;DHT22;38531;53.296;6.614;2022-08-19T23:31:06;19.50;99.90
52643;DHT22;38531;53.296;6.614;2022-08-19T23:33:35;19.40;99.90
52643;DHT22;38531;53.296;6.614;2022-08-19T23:36:06;19.40;99.90
52643;DHT22;38531;53.296;6.614;2022-08-19T23:38:33;19.40;99.90
52643;DHT22;38531;53.296;6.614;2022-08-19T23:41:01;19.40;99.90
52643;DHT22;38531;53.296;6.614;2022-08-19T23:43:27;19.40;99.90
52643;DHT22;38531;53.296;6.614;2022-08-19T23:45:54;19.40;99.90
52643;DHT22;38531;53.296;6.614;2022-08-19T23:48:21;19.30;99.90
52643;DHT22;38531;53.296;6.614;2022-08-19T23:50:47;19.30;99.90
52643;DHT22;38531;53.296;6.614;2022-08-19T23:53:14;19.30;99.90
52643;DHT22;38531;53.296;6.614;2022-08-19T23:55:43;19.20;99.90
52643;DHT22;38531;53.296;6.614;2022-08-19T23:58:09;19.20;99.90
